createdAt,value
2023-01-26T00:00:18.816Z,101074.52
2023-01-26T00:05:43.219Z,101070.60
2023-01-26T00:10:51.721Z,101068.08
2023-01-26T00:15:56.108Z,101066.06
2023-01-26T00:21:02.111Z,101059.02
2023-01-26T00:26:07.768Z,101058.61
2023-01-26T00:31:19.567Z,101058.56
2023-01-26T00:36:24.251Z,101054.70
2023-01-26T00:41:46.927Z,101054.13
2023-01-26T00:46:54.505Z,101049.84
2023-01-26T00:51:58.438Z,101045.72
2023-01-26T00:57:02.912Z,101051.02
2023-01-26T01:02:08.005Z,101048.10
2023-01-26T01:07:12.491Z,101049.45
2023-01-26T01:12:16.473Z,101042.90
2023-01-26T01:17:20.574Z,101043.77
2023-01-26T01:22:25.105Z,101041.77
2023-01-26T01:27:32.022Z,101041.73
2023-01-26T01:32:36.716Z,101039.61
2023-01-26T01:37:41.350Z,101037.05
2023-01-26T01:42:49.306Z,101035.54
2023-01-26T01:47:58.154Z,101026.02
2023-01-26T01:53:02.392Z,101028.11
2023-01-26T01:58:11.096Z,101015.27
2023-01-26T02:03:16.034Z,101008.50
2023-01-26T02:08:23.321Z,100996.94
2023-01-26T02:13:28.016Z,100993.02
2023-01-26T02:18:31.908Z,100990.64
2023-01-26T02:23:35.861Z,100992.61
2023-01-26T02:28:44.839Z,100984.20
2023-01-26T02:33:48.950Z,100973.81
2023-01-26T02:38:56.218Z,100965.96
2023-01-26T02:44:00.088Z,100963.97
2023-01-26T02:49:23.066Z,100954.80
2023-01-26T02:54:45.490Z,100947.21
2023-01-26T02:59:50.568Z,100948.58
2023-01-26T03:04:54.368Z,100941.03
2023-01-26T03:10:02.465Z,100937.98
2023-01-26T03:15:28.566Z,100931.96
2023-01-26T03:20:51.433Z,100921.63
2023-01-26T03:26:16.349Z,100911.60
2023-01-26T03:31:21.207Z,100911.42
2023-01-26T03:36:25.418Z,100903.86
2023-01-26T03:41:49.981Z,100904.11
2023-01-26T03:47:14.010Z,100891.12
2023-01-26T03:52:37.588Z,100889.08
2023-01-26T03:57:42.681Z,100886.73
2023-01-26T04:03:05.174Z,100881.09
2023-01-26T04:08:31.573Z,100884.13
2023-01-26T04:13:56.817Z,100882.69
2023-01-26T04:19:24.945Z,100877.86
2023-01-26T04:24:29.102Z,100880.05
2023-01-26T04:29:36.047Z,100877.52
2023-01-26T04:34:41.379Z,100879.36
2023-01-26T04:39:54.035Z,100873.80
2023-01-26T04:44:59.305Z,100868.36
2023-01-26T04:50:08.740Z,100860.77
2023-01-26T04:55:13.821Z,100855.33
2023-01-26T05:00:20.787Z,100853.21
2023-01-26T05:05:25.843Z,100847.88
2023-01-26T05:10:30.658Z,100843.39
2023-01-26T05:15:54.569Z,100839.31
2023-01-26T05:21:17.146Z,100838.27
2023-01-26T05:26:27.659Z,100839.98
2023-01-26T05:31:35.565Z,100840.56
2023-01-26T05:36:41.240Z,100835.28
2023-01-26T05:41:46.484Z,100836.22
2023-01-26T05:47:11.649Z,100839.80
2023-01-26T05:52:19.304Z,100842.79
2023-01-26T05:57:23.760Z,100835.20
2023-01-26T06:02:36.124Z,100833.66
2023-01-26T06:07:41.059Z,100829.81
2023-01-26T06:13:01.362Z,100824.50
2023-01-26T06:18:18.599Z,100816.77
2023-01-26T06:23:32.427Z,100812.28
2023-01-26T06:28:38.845Z,100819.62
2023-01-26T06:33:43.181Z,100815.95
2023-01-26T06:38:50.769Z,100820.32
2023-01-26T06:43:55.565Z,100826.04
2023-01-26T06:49:03.137Z,100825.55
2023-01-26T06:54:10.755Z,100818.43
2023-01-26T06:59:38.100Z,100822.98
2023-01-26T07:05:11.020Z,100831.16
2023-01-26T07:10:15.733Z,100826.73
2023-01-26T07:15:19.691Z,100832.27
2023-01-26T07:20:24.088Z,100829.76
2023-01-26T07:25:28.467Z,100827.81
2023-01-26T07:30:33.508Z,100826.24
2023-01-26T07:35:37.278Z,100822.98
2023-01-26T07:40:41.750Z,100815.14
2023-01-26T07:45:54.919Z,100813.58
2023-01-26T07:51:00.973Z,100810.08
2023-01-26T07:56:28.316Z,100811.73
2023-01-26T08:01:32.155Z,100820.11
2023-01-26T08:06:36.496Z,100813.88
2023-01-26T08:11:48.709Z,100816.87
2023-01-26T08:16:53.270Z,100819.80
2023-01-26T08:21:58.367Z,100824.96
2023-01-26T08:27:03.099Z,100824.30
2023-01-26T08:32:09.517Z,100817.95
2023-01-26T08:37:14.319Z,100821.86
2023-01-26T08:42:18.615Z,100821.32
2023-01-26T08:47:22.503Z,100814.41
2023-01-26T08:52:29.515Z,100815.70
2023-01-26T08:57:34.218Z,100817.17
2023-01-26T09:02:38.714Z,100822.76
2023-01-26T09:07:42.999Z,100826.45
2023-01-26T09:12:47.740Z,100825.99
2023-01-26T09:17:52.420Z,100824.68
2023-01-26T09:22:56.652Z,100818.68
2023-01-26T09:28:04.023Z,100811.62
2023-01-26T09:33:09.836Z,100812.72
2023-01-26T09:38:13.855Z,100805.77
2023-01-26T09:43:29.632Z,100806.61
2023-01-26T09:48:43.033Z,100803.06
2023-01-26T09:54:21.741Z,100797.11
2023-01-26T09:59:35.797Z,100792.96
2023-01-26T10:04:42.867Z,100786.31
2023-01-26T10:09:49.703Z,100779.14
2023-01-26T10:14:59.837Z,100781.70
2023-01-26T10:20:18.978Z,100784.63
2023-01-26T10:25:49.219Z,100779.64
2023-01-26T10:30:55.854Z,100774.91
2023-01-26T10:36:04.400Z,100772.06
2023-01-26T10:41:23.671Z,100773.77
2023-01-26T10:46:30.734Z,100770.84
2023-01-26T10:51:36.498Z,100773.73
2023-01-26T10:56:57.207Z,100769.59
2023-01-26T11:02:11.721Z,100767.05
2023-01-26T11:07:32.848Z,100770.51
2023-01-26T11:12:36.657Z,100766.31
2023-01-26T11:17:47.593Z,100754.03
2023-01-26T11:23:00.350Z,100745.82
2023-01-26T11:28:22.813Z,100738.45
2023-01-26T11:33:38.878Z,100733.23
2023-01-26T11:38:46.310Z,100733.09
2023-01-26T11:44:08.946Z,100731.13
2023-01-26T11:49:41.754Z,100724.48
2023-01-26T11:55:06.003Z,100714.87
2023-01-26T12:00:30.658Z,100717.20
2023-01-26T12:05:46.684Z,100709.13
2023-01-26T12:11:23.602Z,100701.92
2023-01-26T12:16:56.418Z,100698.54
2023-01-26T12:22:07.181Z,100690.48
2023-01-26T12:27:44.498Z,100689.66
2023-01-26T12:32:48.329Z,100687.37
2023-01-26T12:38:17.936Z,100683.27
2023-01-26T12:43:38.521Z,100677.48
2023-01-26T12:48:47.937Z,100681.34
2023-01-26T12:54:05.099Z,100677.59
2023-01-26T12:59:46.386Z,100676.14
2023-01-26T13:04:51.863Z,100673.40
2023-01-26T13:10:15.224Z,100669.66
2023-01-26T13:15:22.630Z,100670.88
2023-01-26T13:20:50.076Z,100669.30
2023-01-26T13:26:46.502Z,100668.75
2023-01-26T13:32:01.134Z,100670.17
2023-01-26T13:37:19.800Z,100673.29
2023-01-26T13:42:28.279Z,100667.64
2023-01-26T13:47:38.649Z,100674.46
2023-01-26T13:52:43.439Z,100673.34
2023-01-26T13:57:50.019Z,100661.77
2023-01-26T14:02:55.254Z,100658.07
2023-01-26T14:08:00.367Z,100654.30
2023-01-26T14:13:11.092Z,100654.23
2023-01-26T14:18:21.942Z,100652.86
2023-01-26T14:23:30.253Z,100649.02
2023-01-26T14:35:23.727Z,100655.39
2023-01-26T14:40:29.452Z,100656.30
2023-01-26T14:45:34.738Z,100650.98
2023-01-26T14:50:39.279Z,100646.44
2023-01-26T14:55:44.845Z,100646.05
2023-01-26T15:00:50.659Z,100641.48
2023-01-26T15:06:29.070Z,100643.13
2023-01-26T15:11:58.608Z,100638.98
2023-01-26T15:17:03.454Z,100642.95
2023-01-26T15:22:25.917Z,100644.52
2023-01-26T15:27:37.193Z,100644.83
2023-01-26T15:32:41.907Z,100649.42
2023-01-26T15:37:46.015Z,100653.11
2023-01-26T15:42:50.041Z,100652.90
2023-01-26T15:47:55.907Z,100649.38
2023-01-26T15:53:00.457Z,100657.46
2023-01-26T15:58:04.968Z,100653.84
2023-01-26T16:03:15.277Z,100655.02
2023-01-26T16:08:21.019Z,100652.54
2023-01-26T16:13:24.759Z,100652.23
2023-01-26T16:18:28.608Z,100653.58
2023-01-26T16:23:35.109Z,100651.16
2023-01-26T16:28:39.011Z,100652.81
2023-01-26T16:33:43.937Z,100650.02
2023-01-26T16:38:48.956Z,100648.95
2023-01-26T16:43:56.872Z,100652.29
2023-01-26T16:49:01.231Z,100656.80
2023-01-26T16:54:06.107Z,100655.10
2023-01-26T16:59:10.209Z,100655.19
2023-01-26T17:04:14.261Z,100656.29
2023-01-26T17:09:18.296Z,100662.48
2023-01-26T17:14:22.543Z,100669.56
2023-01-26T17:19:27.165Z,100663.29
2023-01-26T17:24:31.020Z,100667.52
2023-01-26T17:29:34.880Z,100671.71
2023-01-26T17:34:38.975Z,100666.59
2023-01-26T17:39:43.093Z,100669.23
2023-01-26T17:44:47.687Z,100667.59
2023-01-26T17:49:52.698Z,100666.89
2023-01-26T17:54:56.962Z,100659.98
2023-01-26T18:00:02.232Z,100660.90
2023-01-26T18:05:14.165Z,100660.88
2023-01-26T18:10:18.785Z,100663.14
2023-01-26T18:15:26.155Z,100660.89
2023-01-26T18:20:33.150Z,100666.52
2023-01-26T18:25:38.718Z,100666.68
2023-01-26T18:30:43.401Z,100666.48
2023-01-26T18:35:47.857Z,100664.36
2023-01-26T18:40:58.124Z,100668.47
2023-01-26T18:46:05.614Z,100672.77
2023-01-26T18:51:16.354Z,100678.17
2023-01-26T18:56:21.601Z,100681.71
2023-01-26T19:01:29.517Z,100683.79
2023-01-26T19:06:37.713Z,100686.29
2023-01-26T19:11:44.439Z,100691.71
2023-01-26T19:16:56.106Z,100693.98
2023-01-26T19:22:03.795Z,100699.42
2023-01-26T19:27:08.905Z,100698.67
2023-01-26T19:32:20.430Z,100693.89
2023-01-26T19:37:27.133Z,100696.66
2023-01-26T19:42:33.023Z,100695.17
2023-01-26T19:53:11.090Z,100689.45
2023-01-26T19:58:31.410Z,100686.02
2023-01-26T20:03:39.548Z,100685.70
2023-01-26T20:08:44.885Z,100685.71
2023-01-26T20:13:59.419Z,100679.85
2023-01-26T20:19:05.742Z,100676.41
2023-01-26T20:24:17.853Z,100680.17
2023-01-26T20:29:23.158Z,100680.20
2023-01-26T20:34:30.338Z,100678.58
2023-01-26T20:39:38.094Z,100680.05
2023-01-26T20:44:44.562Z,100682.04
2023-01-26T20:49:50.600Z,100679.80
2023-01-26T20:54:58.051Z,100678.88
2023-01-26T21:00:05.184Z,100679.61
2023-01-26T21:05:13.318Z,100674.75
2023-01-26T21:10:19.714Z,100672.02
2023-01-26T21:15:25.097Z,100674.75
2023-01-26T21:20:29.665Z,100669.23
2023-01-26T21:25:34.053Z,100667.23
2023-01-26T21:30:39.109Z,100668.49
2023-01-26T21:35:43.311Z,100669.93
2023-01-26T21:40:47.906Z,100667.72
2023-01-26T21:45:59.767Z,100668.09
2023-01-26T21:51:23.611Z,100665.07
2023-01-26T21:56:29.961Z,100660.92
2023-01-26T22:01:37.927Z,100654.88
2023-01-26T22:06:41.899Z,100650.72
2023-01-26T22:11:46.439Z,100649.89
2023-01-26T22:16:50.298Z,100646.05
2023-01-26T22:21:55.582Z,100642.41
2023-01-26T22:26:59.863Z,100643.73
2023-01-26T22:32:04.754Z,100642.14
2023-01-26T22:37:08.758Z,100639.23
2023-01-26T22:42:14.313Z,100639.42
2023-01-26T22:47:17.988Z,100640.91
2023-01-26T22:52:22.668Z,100635.75
2023-01-26T22:57:27.056Z,100639.27
2023-01-26T23:02:32.036Z,100642.64
2023-01-26T23:07:38.969Z,100644.42
2023-01-26T23:12:43.537Z,100640.72
2023-01-26T23:17:52.024Z,100641.70
2023-01-26T23:22:57.156Z,100641.57
2023-01-26T23:28:03.620Z,100638.53
2023-01-26T23:33:09.517Z,100633.79
2023-01-26T23:38:16.749Z,100633.23
2023-01-26T23:43:22.245Z,100639.29
2023-01-26T23:48:28.220Z,100640.27
2023-01-26T23:53:32.917Z,100639.23
2023-01-26T23:58:37.881Z,100640.14
